Lima, OH

10:16 PM EDT on April 27, 2017 (GMT -0400)
Lima Allen County | | Change Station

Elev 974 ft 40.71 °N, 84.03 °W | Updated 23 minutes ago

Partly Cloudy
Partly Cloudy
50 °F
Feels Like 50 °F
N
7
Wind Variable Wind from WSW

Today
High -- | Low -- °F
--% Chance of Precip.
Yesterday
High -- | Low -- °F
Precip. -- in
Pressure 29.82 in
Visibility 10.0 miles
Clouds Few 4400 ft
Dew Point 43 °F
Humidity 77%
Rainfall 0.04 in
Snow Depth Not available.
6:39 AM 8:28 PM
Waxing Crescent, 4% visible
METAR KAOH 280153Z AUTO 25006KT 10SM FEW044 10/06 A2983 RMK AO2 SLP098 T01000061
Pressure 29.82 in
Visibility 10.0 miles
Clouds Few 4400 ft
Dew Point 43 °F
Humidity 77%
Rainfall 0.04 in
Snow Depth Not available.
6:39 AM 8:28 PM
Waxing Crescent, 4% visible
METAR KAOH 280153Z AUTO 25006KT 10SM FEW044 10/06 A2983 RMK AO2 SLP098 T01000061

Get Severe Weather Alerts

Thanks for signing up!

Be on the lookout for a verification email in your inbox.

You'll start receiving the daily forecast at 8 AM.

×

10-Day Weather Forecast

Almanac

Astronomy

Apr. 27, 2017 Rise Set
Actual Time
Civil Twilight
Nautical Twilight
Astronomical Twilight
Moon
Length of Visible Light
Length of Day
Tomorrow will be .
, % of the Moon is Illuminated

Today's Extremes

State Highs State Lows

Community

WunderPhotos

WunderBlog® & News

Nearby

Air Quality

  Air Quality AQ Index Pollutant
Not available.

Snow Depth

Station Depth Elevation

Earthquake Activity

City Distance Mag. Time & Date
Minimum magnitude displayed is 2.5.

Coastal Water Temperatures

Place Temperature

Stations

Nearby Weather Stations

Station Location Temp. Windchill Dew Point Humidity Wind Precip. Elev Updated Type
                   

Watches & Warnings

There are currently no watches in effect.